Time;durP1;ratioP1;P1;durP2;ratioP2;P2;SDS_P1;SDS_P2;PMS_P1;PMS_P2;Temp;Humidity;BMP_temperature;BMP_pressure;BME280_temperature;BME280_humidity;BME280_pressure;Samples;Min_cycle;Max_cycle;Signal;HPM_P1;HPM_P2
2021/12/17 00:01:00;;;;;;;2.90;2.10;;;;;;;2.90;83.75;99130.70;102221;1313;62325;-24
2021/12/17 00:03:43;;;;;;;4.50;2.50;;;;;;;3.13;82.62;99126.66;102045;1316;61184;-24
2021/12/17 00:08:55;;;;;;;4.40;2.80;;;;;;;2.91;83.48;99128.59;102106;1317;74678;-24
2021/12/17 00:11:27;;;;;;;3.40;2.40;;;;;;;2.80;83.98;99131.52;101962;1320;72890;-24
2021/12/17 00:13:57;;;;;;;3.20;2.30;;;;;;;3.01;83.25;99138.92;102150;1317;62026;-24
2021/12/17 00:16:43;;;;;;;3.20;2.40;;;;;;;2.94;83.31;99144.05;101785;1313;61203;-24
2021/12/17 00:48:22;;;;;;;5.20;2.30;;;;;;;2.87;82.67;99153.98;101972;1319;61122;-23
2021/12/17 00:54:22;;;;;;;4.40;1.90;;;;;;;2.96;82.29;99140.85;98950;1354;599526;-24
2021/12/17 00:56:53;;;;;;;4.40;2.40;;;;;;;2.85;82.81;99142.05;101238;1329;61315;-24
2021/12/17 00:59:21;;;;;;;5.60;2.00;;;;;;;2.75;83.26;99145.27;101132;1326;62133;-24
2021/12/17 01:01:50;;;;;;;4.60;2.60;;;;;;;2.99;82.49;99145.88;101276;1329;75011;-24
2021/12/17 01:04:19;;;;;;;4.10;2.20;;;;;;;3.18;81.54;99142.19;101029;1331;76122;-24
2021/12/17 01:06:49;;;;;;;7.60;2.40;;;;;;;3.19;81.45;99143.89;101113;1325;203197;-25
2021/12/17 01:09:18;;;;;;;4.00;2.10;;;;;;;2.95;82.42;99141.95;101042;1325;62083;-24
2021/12/17 01:11:47;;;;;;;7.20;2.80;;;;;;;2.75;82.99;99131.21;101194;1323;61704;-24
2021/12/17 01:14:37;;;;;;;6.50;2.60;;;;;;;2.97;82.72;99138.59;101354;1325;73009;-25
2021/12/17 01:17:42;;;;;;;8.60;2.50;;;;;;;3.14;81.71;99133.84;100742;1328;76011;-24
2021/12/17 01:43:18;;;;;;;3.40;2.30;;;;;;;3.08;82.00;99115.08;100488;1331;74830;-24
2021/12/17 01:45:47;;;;;;;5.10;3.00;;;;;;;3.03;82.25;99112.07;100508;1328;76086;-24
2021/12/17 01:48:21;;;;;;;3.10;2.00;;;;;;;2.84;82.92;99111.41;100460;1329;74204;-24
2021/12/17 01:59:26;;;;;;;5.80;2.40;;;;;;;2.66;83.03;99099.42;101684;1318;75192;-23
2021/12/17 02:02:00;;;;;;;3.70;2.10;;;;;;;2.58;83.58;99114.39;101681;1319;73520;-23
2021/12/17 02:04:30;;;;;;;3.50;2.10;;;;;;;2.68;83.17;99108.94;101623;1320;61410;-24
2021/12/17 02:06:59;;;;;;;6.50;2.50;;;;;;;2.92;82.28;99107.62;101669;1321;61860;-24
2021/12/17 02:20:47;;;;;;;5.60;2.10;;;;;;;2.95;81.74;99101.33;102312;1313;61287;-24
2021/12/17 02:31:34;;;;;;;7.00;2.20;;;;;;;2.70;82.33;99100.95;102197;1314;61207;-24
2021/12/17 02:34:20;;;;;;;10.30;2.30;;;;;;;2.79;82.20;99103.97;102303;1313;61848;-24
2021/12/17 02:36:50;;;;;;;5.30;1.90;;;;;;;2.47;83.17;99090.23;102069;1315;74789;-24
2021/12/17 02:39:58;;;;;;;3.80;1.90;;;;;;;2.47;83.39;99092.92;102306;1313;76263;-24
2021/12/17 02:47:40;;;;;;;6.20;1.90;;;;;;;2.65;82.53;99094.50;102284;1313;61861;-24
2021/12/17 02:50:11;;;;;;;4.70;1.90;;;;;;;2.47;83.27;99089.69;102163;1313;74584;-24
2021/12/17 02:52:40;;;;;;;4.10;1.70;;;;;;;2.52;83.16;99085.36;102022;1315;75202;-24
2021/12/17 02:55:09;;;;;;;7.10;2.30;;;;;;;2.65;82.57;99086.65;102282;1312;73522;-24
2021/12/17 02:57:38;;;;;;;5.90;2.20;;;;;;;2.61;82.52;99081.69;102321;1313;61179;-24
2021/12/17 03:00:13;;;;;;;3.50;1.80;;;;;;;2.44;83.02;99078.67;102294;1313;61170;-24
2021/12/17 03:02:41;;;;;;;5.40;2.40;;;;;;;2.36;83.62;99081.67;102268;1313;72911;-24
2021/12/17 03:05:10;;;;;;;6.10;2.10;;;;;;;2.53;83.09;99077.61;102240;1317;72977;-24
2021/12/17 03:07:42;;;;;;;3.90;2.10;;;;;;;2.83;81.57;99079.78;102291;1312;73029;-24
2021/12/17 03:10:12;;;;;;;3.30;1.70;;;;;;;2.62;82.53;99068.59;102264;1313;62226;-24
2021/12/17 03:23:40;;;;;;;5.70;2.30;;;;;;;2.40;83.92;99054.39;101413;1318;61415;-25
2021/12/17 03:26:11;;;;;;;6.10;2.10;;;;;;;2.22;84.74;99060.70;101162;1318;62146;-26
2021/12/17 03:28:45;;;;;;;3.90;1.50;;;;;;;2.28;84.80;99055.47;101576;1320;74908;-26
2021/12/17 03:31:13;;;;;;;5.60;2.10;;;;;;;2.49;83.93;99054.52;101341;1318;76061;-23
2021/12/17 03:33:43;;;;;;;7.70;2.30;;;;;;;2.47;83.68;99056.64;101449;1318;73501;-25
2021/12/17 03:36:14;;;;;;;8.20;2.10;;;;;;;2.17;84.88;99052.38;101132;1320;62042;-22
2021/12/17 03:38:49;;;;;;;4.20;1.90;;;;;;;2.04;85.21;99053.32;101089;1319;61270;-22
2021/12/17 03:41:22;;;;;;;4.30;1.60;;;;;;;2.13;85.43;99051.87;101218;1321;74817;-22
2021/12/17 03:43:56;;;;;;;4.30;1.60;;;;;;;2.40;83.88;99049.43;101492;1318;74840;-22
2021/12/17 03:46:35;;;;;;;6.90;2.30;;;;;;;2.28;84.03;99049.30;101344;1324;73604;-25
2021/12/17 03:49:04;;;;;;;3.70;1.90;;;;;;;2.12;84.49;99041.45;101429;1318;61871;-24
2021/12/17 03:51:36;;;;;;;5.10;2.00;;;;;;;2.06;84.89;99048.61;101615;1318;61810;-26
2021/12/17 03:54:05;;;;;;;6.80;2.00;;;;;;;2.32;84.48;99050.15;102191;1319;74816;-22
2021/12/17 03:56:33;;;;;;;5.10;1.80;;;;;;;2.54;83.38;99051.84;102228;1312;74139;-23
2021/12/17 03:59:02;;;;;;;2.50;1.50;;;;;;;2.41;83.77;99050.75;102027;1313;73392;-21
2021/12/17 04:01:30;;;;;;;3.70;1.60;;;;;;;2.10;84.85;99043.29;102168;1312;62308;-21
2021/12/17 04:04:05;;;;;;;5.40;1.70;;;;;;;1.95;85.40;99040.03;102106;1312;61291;-21
2021/12/17 04:06:34;;;;;;;3.90;1.60;;;;;;;2.11;84.99;99036.55;102321;1316;74607;-21
2021/12/17 04:09:07;;;;;;;3.30;1.50;;;;;;;2.28;84.22;99034.75;102244;1317;74881;-21
2021/12/17 04:12:00;;;;;;;6.40;1.80;;;;;;;2.23;84.17;99039.25;102268;1312;74340;-21
2021/12/17 04:14:45;;;;;;;4.60;1.70;;;;;;;2.17;84.01;99033.35;101858;1319;62493;-21
2021/12/17 04:17:21;;;;;;;4.80;1.70;;;;;;;2.20;84.21;99032.39;102110;1313;61592;-21
2021/12/17 04:19:50;;;;;;;4.20;1.90;;;;;;;2.41;83.06;99031.71;102156;1316;73755;-24
2021/12/17 04:22:19;;;;;;;3.80;1.60;;;;;;;2.46;82.82;99040.58;102055;1314;76730;-21
2021/12/17 04:24:47;;;;;;;4.20;1.60;;;;;;;2.29;83.34;99032.98;102180;1316;73575;-21
2021/12/17 04:27:16;;;;;;;4.30;2.20;;;;;;;2.08;84.29;99033.26;102171;1312;61212;-21
2021/12/17 04:29:44;;;;;;;5.70;2.20;;;;;;;2.04;84.19;99020.44;102157;1319;61206;-21
2021/12/17 04:32:13;;;;;;;4.90;1.70;;;;;;;2.16;83.64;99026.55;102144;1312;74763;-21
2021/12/17 04:34:42;;;;;;;6.70;1.80;;;;;;;2.11;83.95;99020.26;102151;1316;75969;-21
2021/12/17 04:37:10;;;;;;;3.80;1.50;;;;;;;2.06;84.29;99023.58;102063;1313;74209;-22
2021/12/17 04:39:53;;;;;;;7.40;1.70;;;;;;;1.98;84.62;99025.83;102118;1317;61086;-21
2021/12/17 04:42:43;;;;;;;2.70;1.80;;;;;;;2.13;84.13;99033.39;102125;1313;61137;-21
2021/12/17 04:45:15;;;;;;;2.90;1.40;;;;;;;2.36;82.95;99024.10;102119;1316;74946;-21
2021/12/17 04:59:18;;;;;;;7.10;1.60;;;;;;;2.28;82.55;99014.16;102221;1319;74003;-21
2021/12/17 05:01:48;;;;;;;8.80;1.80;;;;;;;2.21;82.80;99007.81;102218;1310;75990;-21
2021/12/17 05:04:17;;;;;;;3.10;1.20;;;;;;;2.04;83.44;99004.48;102287;1316;74538;-21
2021/12/17 05:06:46;;;;;;;5.30;2.00;;;;;;;1.91;84.22;99006.14;102244;1315;61481;-23
2021/12/17 05:09:30;;;;;;;5.90;1.80;;;;;;;2.24;82.90;99006.46;102149;1318;61163;-23
2021/12/17 05:20:19;;;;;;;6.40;1.60;;;;;;;2.10;83.41;99007.33;101911;1315;62228;-23
2021/12/17 05:22:52;;;;;;;7.70;1.70;;;;;;;2.57;81.55;99013.83;102244;1319;61144;-23
2021/12/17 05:25:21;;;;;;;4.70;1.80;;;;;;;2.37;81.74;99013.58;102205;1316;75447;-23
2021/12/17 05:27:55;;;;;;;8.80;2.20;;;;;;;2.15;82.60;98994.91;102312;1317;75267;-23
2021/12/17 05:30:23;;;;;;;4.80;1.60;;;;;;;1.88;83.58;99005.24;102113;1315;72866;-23
2021/12/17 05:32:52;;;;;;;5.90;1.70;;;;;;;2.00;83.59;99006.03;102145;1317;62108;-23
2021/12/17 05:35:20;;;;;;;6.50;1.90;;;;;;;2.26;82.43;99008.60;102018;1319;62027;-23
2021/12/17 05:37:49;;;;;;;5.40;1.90;;;;;;;2.28;82.50;99008.02;102153;1319;73087;-23
2021/12/17 05:40:18;;;;;;;8.00;2.70;;;;;;;2.18;82.83;99012.05;102112;1312;75101;-23
2021/12/17 05:42:50;;;;;;;5.60;2.00;;;;;;;1.98;83.28;99001.02;101989;1313;74444;-23
2021/12/17 05:45:36;;;;;;;6.50;1.60;;;;;;;1.95;83.49;98997.57;102127;1318;61655;-23
2021/12/17 05:48:07;;;;;;;2.90;1.50;;;;;;;2.34;82.29;99012.04;101922;1314;61115;-23
2021/12/17 05:50:38;;;;;;;5.90;2.00;;;;;;;2.21;82.51;99004.41;101907;1312;75968;-23
2021/12/17 05:53:08;;;;;;;16.70;2.20;;;;;;;2.02;83.24;99008.02;102016;1319;76102;-23
2021/12/17 05:55:37;;;;;;;5.10;1.40;;;;;;;1.86;83.91;99006.55;101986;1315;73213;-23
2021/12/17 05:58:06;;;;;;;6.30;1.60;;;;;;;1.95;83.94;99009.90;102312;1319;61141;-23
2021/12/17 06:00:35;;;;;;;8.30;1.70;;;;;;;2.19;82.97;99009.45;102185;1316;61249;-23
2021/12/17 06:03:23;;;;;;;7.40;1.60;;;;;;;2.07;83.82;99013.98;101989;1315;75766;-22
2021/12/17 06:06:07;;;;;;;5.50;1.70;;;;;;;1.97;84.24;99014.10;102103;1319;76310;-22
2021/12/17 06:08:36;;;;;;;5.70;2.00;;;;;;;1.83;84.80;99006.67;102232;1318;73484;-22
2021/12/17 06:11:04;;;;;;;5.30;1.70;;;;;;;2.01;84.13;99006.70;102050;1319;61036;-22
2021/12/17 06:13:32;;;;;;;5.70;1.50;;;;;;;2.11;83.59;99009.52;102171;1319;62110;-21
2021/12/17 06:16:08;;;;;;;8.10;2.00;;;;;;;1.98;83.90;99007.17;102195;1319;74796;-22
2021/12/17 06:18:38;;;;;;;4.70;1.80;;;;;;;1.82;84.54;98994.23;102294;1313;76116;-23
2021/12/17 06:21:07;;;;;;;3.70;1.40;;;;;;;1.75;84.94;98994.70;101976;1316;73206;-22
2021/12/17 06:23:37;;;;;;;6.90;2.10;;;;;;;2.08;84.23;98999.20;102058;1318;61176;-22
2021/12/17 06:26:05;;;;;;;4.20;1.60;;;;;;;2.07;83.90;98998.90;102136;1319;62125;-22
2021/12/17 06:28:35;;;;;;;6.50;1.70;;;;;;;1.95;84.23;98995.35;101971;1312;74660;-22
2021/12/17 06:31:04;;;;;;;4.50;1.70;;;;;;;1.73;84.89;98986.56;102142;1316;75794;-23
2021/12/17 06:33:33;;;;;;;6.30;1.80;;;;;;;1.72;85.04;98986.27;102138;1318;71588;-22
2021/12/17 06:36:03;;;;;;;6.50;2.10;;;;;;;2.11;83.60;98991.36;102010;1317;61106;-22
2021/12/17 06:38:32;;;;;;;10.10;1.80;;;;;;;2.11;83.26;98985.02;102105;1317;61349;-22
2021/12/17 06:41:01;;;;;;;5.50;2.10;;;;;;;1.95;83.69;98992.63;102262;1319;74557;-22
2021/12/17 06:43:37;;;;;;;4.00;1.50;;;;;;;1.82;84.42;98995.78;102300;1319;73944;-22
2021/12/17 06:46:19;;;;;;;4.50;1.70;;;;;;;2.07;83.79;99001.13;102269;1319;73157;-22
2021/12/17 06:48:55;;;;;;;4.90;1.80;;;;;;;2.19;83.12;98997.13;102259;1319;62155;-22
2021/12/17 07:08:08;;;;;;;9.30;1.80;;;;;;;1.86;84.18;99000.72;101696;1321;61166;-22
2021/12/17 07:10:29;;;;;;;6.80;1.60;;;;;;;1.64;85.00;99005.50;102117;1319;74834;-23
2021/12/17 07:21:27;;;;;;;4.80;2.20;;;;;;;1.42;85.30;99018.09;102276;1319;61174;-22
2021/12/17 07:35:52;;;;;;;6.30;1.80;;;;;;;2.16;84.26;99017.98;101551;1322;61067;-22
2021/12/17 07:38:48;;;;;;;5.10;1.90;;;;;;;2.57;82.44;99016.21;101643;1324;74399;-22
2021/12/17 07:41:36;;;;;;;2.60;1.00;;;;;;;2.17;83.17;99011.94;101519;1318;75966;-22
2021/12/17 07:44:34;;;;;;;4.90;2.00;;;;;;;2.02;83.28;99003.25;101115;1327;73814;-22
2021/12/17 07:47:35;;;;;;;5.70;1.30;;;;;;;2.19;82.29;98999.20;101312;1319;61048;-22
2021/12/17 07:50:27;;;;;;;4.90;1.50;;;;;;;2.41;81.96;99003.12;101657;1320;61351;-22
2021/12/17 07:53:08;;;;;;;5.30;1.60;;;;;;;2.30;82.36;99007.59;101520;1323;74645;-23
2021/12/17 07:56:01;;;;;;;5.20;1.30;;;;;;;2.12;82.31;99007.23;101579;1319;75296;-22
2021/12/17 07:58:32;;;;;;;6.20;1.20;;;;;;;2.14;82.76;99011.08;101251;1325;72925;-22
2021/12/17 08:01:02;;;;;;;4.00;1.10;;;;;;;2.56;81.06;99011.83;101510;1321;61113;-22
2021/12/17 08:03:31;;;;;;;3.80;1.00;;;;;;;2.77;80.26;99012.48;101311;1318;61222;-22
2021/12/17 08:06:09;;;;;;;1.80;0.70;;;;;;;2.65;80.45;99014.11;101637;1320;75676;-22
2021/12/17 08:08:52;;;;;;;5.50;1.50;;;;;;;2.49;80.81;99014.02;102321;1313;75161;-23
2021/12/17 08:11:26;;;;;;;3.80;1.10;;;;;;;2.20;80.78;99011.98;102157;1319;71549;-24
2021/12/17 08:13:56;;;;;;;3.10;1.00;;;;;;;2.45;80.40;99012.02;101937;1313;61197;-24
2021/12/17 08:24:46;;;;;;;4.10;1.00;;;;;;;2.25;81.06;99005.60;102083;1317;73916;-23
2021/12/17 08:30:21;;;;;;;7.90;1.70;;;;;;;2.58;80.21;99003.84;102078;1317;61250;-23
2021/12/17 08:32:57;;;;;;;5.10;1.30;;;;;;;2.29;81.00;98998.70;101886;1314;74183;-23
2021/12/17 08:35:25;;;;;;;4.80;0.90;;;;;;;2.26;81.35;99000.55;101789;1314;76182;-23
2021/12/17 08:37:58;;;;;;;1.30;0.80;;;;;;;2.22;81.85;99002.79;101814;1313;74709;-23
2021/12/17 08:40:29;;;;;;;1.60;0.80;;;;;;;2.61;80.60;99006.11;102086;1314;61486;-23
2021/12/17 08:42:59;;;;;;;5.90;1.40;;;;;;;2.75;79.68;99005.92;102141;1313;61945;-23
2021/12/17 08:45:28;;;;;;;5.00;1.40;;;;;;;2.62;80.14;99011.86;101912;1313;74096;-23
2021/12/17 08:48:16;;;;;;;3.40;1.20;;;;;;;2.38;80.82;99000.86;102201;1313;76104;-23
2021/12/17 08:50:53;;;;;;;4.30;1.10;;;;;;;2.20;81.21;99001.02;101917;1319;74499;-24
2021/12/17 08:53:21;;;;;;;5.80;1.80;;;;;;;2.33;80.87;98995.77;101932;1314;61116;-23
2021/12/17 08:55:50;;;;;;;4.70;1.30;;;;;;;2.55;79.88;99000.91;102220;1317;61188;-24
2021/12/17 08:58:19;;;;;;;4.00;1.90;;;;;;;2.58;79.97;99004.89;102329;1316;74621;-23
2021/12/17 09:00:48;;;;;;;3.50;1.70;;;;;;;2.47;80.82;98999.39;102000;1317;74933;-24
2021/12/17 09:03:24;;;;;;;5.50;1.70;;;;;;;2.30;81.32;98998.82;102013;1316;73457;-24
2021/12/17 09:06:11;;;;;;;5.40;1.40;;;;;;;2.41;81.14;98994.03;102104;1313;61302;-24
2021/12/17 09:08:45;;;;;;;6.20;1.90;;;;;;;2.52;80.81;98992.79;101911;1318;340222;-24
2021/12/17 09:11:14;;;;;;;6.10;1.30;;;;;;;2.67;80.54;98989.33;101833;1313;75972;-24
2021/12/17 09:13:51;;;;;;;3.30;0.90;;;;;;;2.45;80.54;98983.59;102244;1313;76097;-25
2021/12/17 09:16:20;;;;;;;5.20;1.60;;;;;;;2.41;81.11;98984.23;102211;1316;74376;-25
2021/12/17 09:18:53;;;;;;;5.20;1.60;;;;;;;2.44;81.01;98984.98;101854;1314;61665;-24
2021/12/17 09:21:46;;;;;;;4.30;1.10;;;;;;;2.74;79.44;98985.58;101876;1313;61210;-24
2021/12/17 09:24:19;;;;;;;5.10;1.40;;;;;;;2.52;80.04;98982.17;102065;1313;75592;-25
2021/12/17 09:27:06;;;;;;;4.30;1.90;;;;;;;2.44;81.10;98987.89;102142;1316;75143;-24
2021/12/17 09:29:55;;;;;;;7.70;1.40;;;;;;;2.16;81.67;98987.16;101863;1316;74433;-25
2021/12/17 09:32:23;;;;;;;2.00;1.10;;;;;;;2.36;81.87;98992.86;102118;1313;61778;-25
2021/12/17 09:34:52;;;;;;;4.40;1.50;;;;;;;2.66;80.98;98989.23;102112;1316;62226;-24
2021/12/17 09:37:21;;;;;;;6.60;2.30;;;;;;;2.53;80.67;98984.52;102191;1310;75892;-25
2021/12/17 09:39:49;;;;;;;4.40;1.50;;;;;;;2.21;80.80;98975.80;102025;1319;76223;-25
2021/12/17 09:42:18;;;;;;;4.60;1.20;;;;;;;2.08;81.81;98971.95;102058;1313;74452;-25
2021/12/17 09:44:46;;;;;;;3.40;1.20;;;;;;;2.12;82.52;98977.08;102064;1315;62151;-25
2021/12/17 09:47:14;;;;;;;4.30;1.10;;;;;;;2.46;82.11;98978.72;102300;1318;61893;-25
2021/12/17 09:49:42;;;;;;;4.20;1.30;;;;;;;2.35;81.91;98978.89;102167;1314;75616;-25
2021/12/17 09:52:11;;;;;;;2.60;1.70;;;;;;;2.48;81.84;98978.42;102109;1313;75144;-25
2021/12/17 09:54:40;;;;;;;4.40;1.20;;;;;;;2.22;82.97;98977.44;101996;1314;74640;-25
2021/12/17 09:57:08;;;;;;;9.30;2.30;;;;;;;2.22;83.78;98981.91;102153;1313;63161;-25
2021/12/17 09:59:39;;;;;;;6.10;1.60;;;;;;;2.54;82.02;98971.98;102262;1314;61692;-25
2021/12/17 10:02:08;;;;;;;5.10;1.50;;;;;;;2.62;81.59;98966.61;102278;1317;75811;-25
2021/12/17 10:04:36;;;;;;;5.70;1.80;;;;;;;2.55;81.63;98971.23;102339;1314;76298;-25
2021/12/17 10:07:17;;;;;;;25.10;8.20;;;;;;;2.39;81.87;98965.33;101941;1315;74809;-25
2021/12/17 10:09:59;;;;;;;22.40;6.20;;;;;;;2.38;82.59;98962.83;101761;1315;61499;-25
2021/12/17 10:12:33;;;;;;;5.50;1.60;;;;;;;2.74;80.84;98964.80;102114;1313;62266;-27
2021/12/17 10:15:04;;;;;;;;;;;;;;;2.78;80.27;98951.06;101894;1312;73562;-27
2021/12/17 10:17:37;;;;;;;6.80;2.30;;;;;;;2.71;80.09;98951.90;102024;1312;76094;-29
2021/12/17 10:20:07;;;;;;;12.40;5.40;;;;;;;2.47;80.62;98945.89;101782;1313;73143;-27
2021/12/17 10:22:36;;;;;;;7.30;3.20;;;;;;;2.37;81.31;98940.59;101796;1314;61287;-25
2021/12/17 10:25:09;;;;;;;6.30;2.00;;;;;;;2.49;81.12;98935.52;102111;1316;61925;-25
2021/12/17 10:27:42;;;;;;;10.10;4.40;;;;;;;2.84;79.66;98935.48;101969;1317;75673;-25
2021/12/17 10:30:12;;;;;;;9.80;2.60;;;;;;;2.81;79.01;98933.08;101775;1316;76079;-25
2021/12/17 10:32:44;;;;;;;13.60;5.00;;;;;;;2.77;79.49;98929.00;102130;1313;74693;-25
2021/12/17 10:35:18;;;;;;;9.50;3.40;;;;;;;2.45;81.04;98930.94;102185;1314;61112;-25
2021/12/17 10:37:59;;;;;;;3.80;0.80;;;;;;;1.71;82.12;98927.30;102091;1316;61183;-25
2021/12/17 10:40:37;;;;;;;5.10;3.30;;;;;;;2.12;81.68;98934.77;102194;1314;75315;-26
2021/12/17 10:51:12;;;;;;;42.70;10.20;;;;;;;1.72;83.27;98927.25;102074;1312;61311;-25
2021/12/17 10:53:51;;;;;;;164.50;40.40;;;;;;;1.96;82.58;98924.60;102067;1313;75404;-25
2021/12/17 10:56:21;;;;;;;6.80;2.40;;;;;;;2.09;81.85;98919.51;102152;1316;76081;-25
2021/12/17 10:59:07;;;;;;;67.50;15.60;;;;;;;1.96;82.17;98917.53;102023;1313;74482;-24
2021/12/17 11:01:36;;;;;;;67.90;16.80;;;;;;;1.90;83.28;98923.67;102124;1312;61326;-24
2021/12/17 11:04:23;;;;;;;43.00;12.40;;;;;;;1.85;82.72;98923.70;102009;1312;61518;-25
2021/12/17 11:07:06;;;;;;;5.60;2.50;;;;;;;2.12;81.30;98915.96;101777;1314;75412;-24
2021/12/17 11:09:54;;;;;;;20.70;9.00;;;;;;;2.17;80.93;98924.97;102107;1318;76265;-24
2021/12/17 11:12:25;;;;;;;4.10;2.20;;;;;;;2.25;81.24;98923.50;102008;1316;74464;-25
2021/12/17 11:15:21;;;;;;;2.70;0.90;;;;;;;2.07;80.96;98913.45;101956;1314;61249;-25
2021/12/17 11:17:58;;;;;;;9.60;4.30;;;;;;;1.95;81.54;98920.54;102122;1317;61154;-25
2021/12/17 11:20:29;;;;;;;8.80;4.40;;;;;;;2.31;80.45;98919.14;101954;1317;75646;-24
2021/12/17 11:23:03;;;;;;;5.30;1.80;;;;;;;2.48;79.01;98911.80;102085;1318;74994;-24
2021/12/17 11:25:32;;;;;;;22.60;10.20;;;;;;;2.33;79.67;98918.84;102124;1312;74495;-24
2021/12/17 11:28:00;;;;;;;42.40;10.50;;;;;;;2.14;79.73;98914.45;102139;1318;61277;-24
2021/12/17 11:30:31;;;;;;;167.50;36.30;;;;;;;1.89;80.59;98911.88;102303;1312;61191;-24
2021/12/17 11:33:01;;;;;;;29.50;7.10;;;;;;;1.93;80.78;98913.58;102016;1316;75590;-24
2021/12/17 11:35:46;;;;;;;138.30;31.50;;;;;;;2.28;79.38;98910.87;102244;1314;75090;-24
2021/12/17 11:38:36;;;;;;;13.30;3.90;;;;;;;2.65;78.28;98911.11;101882;1313;74569;-24
2021/12/17 11:41:14;;;;;;;11.70;4.50;;;;;;;2.48;78.47;98911.95;102096;1313;61213;-24
2021/12/17 11:43:53;;;;;;;9.30;3.00;;;;;;;2.23;79.53;98915.23;101832;1313;61144;-24
2021/12/17 11:46:26;;;;;;;2.10;1.10;;;;;;;2.24;80.26;98917.73;102046;1314;73759;-24
2021/12/17 11:48:57;;;;;;;1.60;0.60;;;;;;;2.37;79.86;98919.52;101657;1317;76165;-24
2021/12/17 11:51:28;;;;;;;5.20;1.80;;;;;;;2.51;78.97;98916.45;101824;1315;74434;-24
2021/12/17 11:54:07;;;;;;;2.70;1.40;;;;;;;2.67;79.08;98922.63;102247;1312;61892;-23
2021/12/17 11:56:47;;;;;;;8.00;4.20;;;;;;;2.44;78.96;98920.34;102199;1313;61857;-24
2021/12/17 11:59:25;;;;;;;2.50;1.10;;;;;;;2.04;79.39;98912.36;101892;1317;75597;-24
2021/12/17 12:02:16;;;;;;;4.30;1.60;;;;;;;2.18;79.52;98917.88;102098;1314;76073;-24
2021/12/17 12:04:45;;;;;;;18.20;8.80;;;;;;;2.41;78.17;98911.10;102201;1312;72270;-24
2021/12/17 12:07:26;;;;;;;5.70;3.10;;;;;;;2.54;77.63;98911.16;102171;1312;61887;-24
2021/12/17 12:10:02;;;;;;;20.90;9.40;;;;;;;2.52;77.74;98911.91;102222;1316;61191;-23
2021/12/17 12:12:33;;;;;;;6.50;3.40;;;;;;;2.48;78.52;98907.85;102190;1313;75553;-24
2021/12/17 12:15:21;;;;;;;10.00;3.10;;;;;;;2.30;78.77;98911.80;102269;1313;74898;-24
2021/12/17 12:18:07;;;;;;;82.60;34.40;;;;;;;2.62;78.08;98910.73;102155;1313;72508;-25
2021/12/17 12:20:50;;;;;;;14.80;4.80;;;;;;;2.81;77.06;98911.14;102302;1314;61171;-23
2021/12/17 12:23:20;;;;;;;6.50;3.60;;;;;;;2.51;77.38;98905.29;102292;1312;61080;-24
2021/12/17 12:26:01;;;;;;;82.60;27.20;;;;;;;2.33;78.59;98911.48;102158;1314;74879;-24
2021/12/17 12:28:45;;;;;;;29.40;8.50;;;;;;;2.21;78.67;98907.80;102222;1312;76201;-24
2021/12/17 12:31:27;;;;;;;22.30;6.60;;;;;;;2.21;78.04;98904.71;102232;1313;74350;-23
2021/12/17 12:34:06;;;;;;;14.10;5.10;;;;;;;2.45;77.27;98903.85;102244;1313;61237;-23
2021/12/17 12:37:00;;;;;;;46.30;12.30;;;;;;;2.38;77.18;98907.14;102294;1317;61123;-23
2021/12/17 12:39:49;;;;;;;19.30;5.80;;;;;;;2.28;78.06;98911.71;102072;1317;74168;-24
2021/12/17 12:42:24;;;;;;;49.50;17.00;;;;;;;2.10;78.46;98911.08;102022;1314;74637;-23
2021/12/17 12:44:56;;;;;;;51.50;15.60;;;;;;;1.91;79.68;98908.70;101832;1319;73179;-24
2021/12/17 12:47:29;;;;;;;23.10;8.60;;;;;;;1.96;79.73;98910.67;102154;1313;61175;-23
2021/12/17 12:50:02;;;;;;;10.60;4.40;;;;;;;2.27;78.62;98910.59;102267;1312;61809;-23
2021/12/17 12:52:39;;;;;;;7.10;3.90;;;;;;;2.19;78.99;98917.98;101618;1313;75657;-24
2021/12/17 12:55:18;;;;;;;3.60;1.50;;;;;;;1.87;79.99;98915.77;102005;1312;74896;-23
2021/12/17 12:57:49;;;;;;;2.70;1.40;;;;;;;1.90;80.64;98917.85;101683;1313;71849;-23
2021/12/17 13:00:25;;;;;;;6.30;3.30;;;;;;;2.37;79.59;98917.97;101785;1314;61174;-23
2021/12/17 13:03:12;;;;;;;8.70;4.60;;;;;;;2.70;78.00;98915.48;101639;1315;61865;-23
2021/12/17 13:05:42;;;;;;;17.10;7.10;;;;;;;2.40;78.55;98914.92;102005;1319;74243;-23
2021/12/17 13:08:22;;;;;;;5.80;2.60;;;;;;;2.10;78.83;98913.80;102158;1313;75988;-23
2021/12/17 13:10:54;;;;;;;4.10;2.00;;;;;;;1.78;79.84;98914.66;101708;1315;74247;-23
2021/12/17 13:13:52;;;;;;;3.00;1.50;;;;;;;1.79;79.86;98916.48;101834;1314;61411;-23
2021/12/17 13:24:31;;;;;;;23.10;7.90;;;;;;;1.74;77.33;98922.55;102254;1317;74611;-24
2021/12/17 13:27:00;;;;;;;;;;;;;;;1.67;77.83;98922.17;101791;1316;61209;-23
2021/12/17 13:29:34;;;;;;;13.00;4.80;;;;;;;1.65;77.57;98920.56;102166;1319;62158;-23
2021/12/17 13:32:03;;;;;;;15.70;6.20;;;;;;;2.02;75.75;98920.20;102141;1319;73887;-24
2021/12/17 13:34:34;;;;;;;10.30;4.50;;;;;;;1.99;75.93;98922.92;102194;1314;76131;-24
2021/12/17 13:37:08;;;;;;;4.00;2.30;;;;;;;1.91;77.38;98922.76;101821;1312;73445;-22
2021/12/17 13:39:47;;;;;;;6.10;2.90;;;;;;;1.64;78.92;98914.45;102036;1313;61183;-22
2021/12/17 13:42:18;;;;;;;9.80;4.10;;;;;;;1.53;78.52;98914.79;101886;1315;61266;-22
2021/12/17 13:44:53;;;;;;;2.40;1.40;;;;;;;1.66;78.07;98909.91;101758;1313;75483;-24
2021/12/17 13:47:28;;;;;;;1.80;1.00;;;;;;;1.91;77.19;98918.47;101777;1317;76273;-24
2021/12/17 13:49:59;;;;;;;2.10;1.40;;;;;;;2.04;77.32;98925.23;101922;1313;74520;-24
2021/12/17 13:52:37;;;;;;;2.70;1.20;;;;;;;1.76;78.82;98928.26;102086;1312;61228;-24
2021/12/17 13:55:07;;;;;;;2.50;1.00;;;;;;;1.73;79.07;98928.90;101739;1313;61257;-24
2021/12/17 13:57:36;;;;;;;1.50;0.90;;;;;;;1.55;79.65;98924.75;101948;1313;72949;-23
2021/12/17 14:00:17;;;;;;;2.90;0.90;;;;;;;1.80;78.53;98923.45;102036;1315;76186;-23
2021/12/17 14:02:47;;;;;;;3.60;1.10;;;;;;;1.69;78.72;98929.25;101973;1315;73063;-23
2021/12/17 14:05:25;;;;;;;0.90;0.60;;;;;;;1.61;78.99;98935.42;102016;1312;61865;-24
2021/12/17 14:07:55;;;;;;;1.90;1.00;;;;;;;1.45;79.93;98933.27;101894;1314;62070;-23
2021/12/17 14:10:29;;;;;;;3.90;0.90;;;;;;;1.39;80.25;98939.55;102033;1317;73458;-23
2021/12/17 14:12:59;;;;;;;1.10;0.70;;;;;;;1.67;79.42;98945.10;102011;1316;76236;-23
2021/12/17 14:15:49;;;;;;;2.90;0.80;;;;;;;1.82;78.85;98944.25;102008;1312;74504;-23
2021/12/17 14:18:19;;;;;;;1.40;0.60;;;;;;;1.83;78.65;98948.83;101671;1313;61155;-23
2021/12/17 14:20:55;;;;;;;1.30;0.70;;;;;;;1.66;79.26;98942.77;101722;1316;61870;-23
2021/12/17 14:23:24;;;;;;;2.30;1.20;;;;;;;1.34;80.28;98944.70;101933;1313;75672;-23
2021/12/17 14:25:59;;;;;;;1.40;0.70;;;;;;;1.49;79.98;98948.14;101652;1315;75053;-23
2021/12/17 14:28:30;;;;;;;3.20;1.40;;;;;;;1.90;78.55;98956.20;101720;1313;73492;-23
2021/12/17 14:30:59;;;;;;;3.10;1.60;;;;;;;1.72;78.68;98957.55;101790;1314;61250;-23
2021/12/17 14:33:32;;;;;;;1.10;0.70;;;;;;;1.60;79.58;98950.57;102090;1312;61133;-23
2021/12/17 14:36:05;;;;;;;2.50;1.10;;;;;;;1.31;80.99;98948.09;101938;1313;74231;-22
2021/12/17 14:38:37;;;;;;;2.00;0.70;;;;;;;1.20;81.63;98959.52;101718;1316;74964;-25
2021/12/17 14:41:07;;;;;;;2.50;1.10;;;;;;;1.41;81.73;98956.55;101957;1313;74388;-23
2021/12/17 14:43:52;;;;;;;1.60;1.10;;;;;;;1.70;80.08;98960.38;101739;1313;62166;-22
2021/12/17 14:46:24;;;;;;;3.20;0.90;;;;;;;1.57;80.19;98961.33;101893;1312;61865;-22
2021/12/17 15:06:10;;;;;;;3.80;1.40;;;;;;;1.20;79.43;98971.67;102090;1312;75164;-23
2021/12/17 15:08:39;;;;;;;1.40;0.80;;;;;;;1.48;78.59;98975.40;102012;1313;71626;-23
2021/12/17 15:11:15;;;;;;;1.80;1.00;;;;;;;1.65;77.65;98969.34;101816;1315;61997;-22
2021/12/17 15:13:44;;;;;;;1.70;0.90;;;;;;;1.75;77.56;98979.69;102016;1313;61259;-22
2021/12/17 15:16:12;;;;;;;1.60;0.80;;;;;;;1.48;78.20;98971.83;102064;1313;75625;-23
2021/12/17 15:18:42;;;;;;;1.40;0.80;;;;;;;1.30;79.18;98972.77;102129;1313;76074;-22
2021/12/17 15:21:11;;;;;;;1.30;0.90;;;;;;;1.23;79.75;98973.09;101984;1312;74411;-22
2021/12/17 15:23:39;;;;;;;2.80;1.00;;;;;;;1.46;79.16;98975.81;102109;1312;61075;-23
2021/12/17 15:26:07;;;;;;;2.70;1.00;;;;;;;1.45;78.94;98976.71;101805;1314;61187;-22
2021/12/17 15:28:36;;;;;;;1.90;0.80;;;;;;;1.29;79.73;98977.96;102124;1312;74618;-23